createdAt,value
2018-09-09T00:00:52.490Z,3.70
2018-09-09T00:03:20.848Z,3.80
2018-09-09T00:05:49.258Z,3.23
2018-09-09T00:08:17.595Z,4.07
2018-09-09T00:10:45.881Z,3.60
2018-09-09T00:13:14.318Z,3.90
2018-09-09T00:15:42.651Z,3.90
2018-09-09T00:18:11.069Z,4.40
2018-09-09T00:20:39.489Z,4.13
2018-09-09T00:23:07.935Z,3.43
2018-09-09T00:25:36.807Z,3.43
2018-09-09T00:28:05.417Z,3.83
2018-09-09T00:30:33.759Z,2.83
2018-09-09T00:33:02.152Z,3.07
2018-09-09T00:35:30.597Z,2.90
2018-09-09T00:37:59.574Z,2.70
2018-09-09T00:40:27.929Z,3.07
2018-09-09T00:42:56.328Z,2.80
2018-09-09T00:45:24.753Z,3.30
2018-09-09T00:47:53.127Z,3.10
2018-09-09T00:50:28.695Z,3.20
2018-09-09T00:53:02.414Z,3.50
2018-09-09T00:55:31.048Z,2.60
2018-09-09T00:58:01.377Z,3.00
2018-09-09T01:00:35.293Z,3.40
2018-09-09T01:03:04.615Z,2.47
2018-09-09T01:05:32.974Z,3.20
2018-09-09T01:08:02.843Z,2.50
2018-09-09T01:10:32.200Z,2.80
2018-09-09T01:13:01.599Z,2.33
2018-09-09T01:15:29.992Z,2.87
2018-09-09T01:17:58.353Z,3.13
2018-09-09T01:20:27.689Z,3.30
2018-09-09T01:22:58.042Z,2.77
2018-09-09T01:25:26.420Z,3.37
2018-09-09T01:27:54.744Z,2.60
2018-09-09T01:30:23.239Z,2.60
2018-09-09T01:32:51.629Z,2.53
2018-09-09T01:35:20.065Z,2.87
2018-09-09T01:37:48.486Z,2.17
2018-09-09T01:40:16.910Z,2.63
2018-09-09T01:42:47.288Z,2.50
2018-09-09T01:45:15.694Z,2.33
2018-09-09T01:47:44.092Z,2.73
2018-09-09T01:50:12.489Z,2.63
2018-09-09T01:52:40.895Z,2.27
2018-09-09T01:55:09.328Z,2.30
2018-09-09T01:57:37.706Z,2.40
2018-09-09T02:00:10.388Z,2.43
2018-09-09T02:02:38.674Z,2.33
2018-09-09T02:05:07.054Z,2.80
2018-09-09T02:07:35.374Z,2.60
2018-09-09T02:10:03.780Z,2.50
2018-09-09T02:12:32.117Z,2.63
2018-09-09T02:15:00.493Z,2.10
2018-09-09T02:17:33.708Z,2.47
2018-09-09T02:20:05.354Z,2.27
2018-09-09T02:22:33.710Z,2.17
2018-09-09T02:25:02.144Z,2.40
2018-09-09T02:27:31.591Z,2.17
2018-09-09T02:30:00.044Z,2.30
2018-09-09T02:32:28.669Z,2.40
2018-09-09T02:34:57.710Z,2.40
2018-09-09T02:37:26.045Z,1.97
2018-09-09T02:39:54.532Z,3.03
2018-09-09T02:42:23.022Z,2.47
2018-09-09T02:44:51.651Z,2.10
2018-09-09T02:47:20.320Z,2.43
2018-09-09T02:49:48.697Z,2.10
2018-09-09T02:52:17.155Z,2.57
2018-09-09T02:54:45.487Z,2.20
2018-09-09T02:57:15.003Z,2.70
2018-09-09T02:59:44.444Z,2.83
2018-09-09T03:02:12.808Z,3.20
2018-09-09T03:04:41.258Z,2.53
2018-09-09T03:07:10.284Z,2.67
2018-09-09T03:09:38.652Z,2.53
2018-09-09T03:12:07.012Z,2.73
2018-09-09T03:14:36.428Z,2.20
2018-09-09T03:17:04.714Z,2.10
2018-09-09T03:19:33.283Z,2.40
2018-09-09T03:22:01.629Z,2.30
2018-09-09T03:24:30.041Z,2.30
2018-09-09T03:26:58.359Z,2.63
2018-09-09T03:29:26.851Z,2.73
2018-09-09T03:31:55.234Z,2.50
2018-09-09T03:34:23.610Z,2.67
2018-09-09T03:36:52.012Z,2.83
2018-09-09T03:39:20.313Z,2.53
2018-09-09T03:41:48.643Z,2.40
2018-09-09T03:44:17.039Z,2.27
2018-09-09T03:46:45.399Z,2.73
2018-09-09T03:49:13.780Z,3.30
2018-09-09T03:51:42.211Z,2.57
2018-09-09T03:54:10.532Z,3.10
2018-09-09T03:56:38.900Z,2.60
2018-09-09T03:59:07.328Z,2.40
2018-09-09T04:01:35.730Z,2.37
2018-09-09T04:04:04.071Z,2.50
2018-09-09T04:06:32.385Z,2.30
2018-09-09T04:09:00.841Z,2.50
2018-09-09T04:11:29.227Z,2.43
2018-09-09T04:13:57.540Z,2.50
2018-09-09T04:16:26.881Z,2.50
2018-09-09T04:18:55.179Z,2.30
2018-09-09T04:21:23.459Z,2.37
2018-09-09T04:23:51.778Z,2.37
2018-09-09T04:26:20.072Z,2.67
2018-09-09T04:28:48.585Z,2.77
2018-09-09T04:31:16.922Z,2.60
2018-09-09T04:33:46.245Z,2.43
2018-09-09T04:36:14.575Z,2.90
2018-09-09T04:38:43.943Z,2.40
2018-09-09T04:41:12.297Z,2.57
2018-09-09T04:43:40.635Z,2.77
2018-09-09T04:46:08.985Z,2.80
2018-09-09T04:48:37.359Z,2.77
2018-09-09T04:51:05.663Z,2.77
2018-09-09T04:53:33.956Z,2.50
2018-09-09T04:56:02.282Z,2.43
2018-09-09T04:58:30.699Z,2.70
2018-09-09T05:00:59.043Z,2.77
2018-09-09T05:03:27.355Z,2.83
2018-09-09T05:05:55.736Z,3.10
2018-09-09T05:08:24.043Z,2.43
2018-09-09T05:10:52.478Z,2.43
2018-09-09T05:13:20.788Z,2.40
2018-09-09T05:15:49.046Z,2.67
2018-09-09T05:18:17.372Z,2.33
2018-09-09T05:20:45.788Z,3.20
2018-09-09T05:23:14.155Z,2.90
2018-09-09T05:25:42.468Z,2.10
2018-09-09T05:28:10.786Z,2.37
2018-09-09T05:30:39.156Z,2.77
2018-09-09T05:33:08.497Z,2.53
2018-09-09T05:35:36.810Z,2.43
2018-09-09T05:38:05.350Z,2.50
2018-09-09T05:40:33.721Z,1.97
2018-09-09T05:43:02.122Z,1.90
2018-09-09T05:45:30.454Z,2.17
2018-09-09T05:47:58.833Z,2.40
2018-09-09T05:50:27.200Z,2.40
2018-09-09T05:52:55.470Z,2.03
2018-09-09T05:55:23.785Z,2.30
2018-09-09T05:57:52.214Z,2.10
2018-09-09T06:00:20.557Z,2.30
2018-09-09T06:02:48.982Z,1.93
2018-09-09T06:05:17.238Z,1.90
2018-09-09T06:07:45.627Z,2.63
2018-09-09T06:10:13.971Z,2.40
2018-09-09T06:12:42.408Z,2.27
2018-09-09T06:15:10.757Z,2.20
2018-09-09T06:17:39.078Z,2.40
2018-09-09T06:20:07.368Z,2.00
2018-09-09T06:22:35.733Z,2.40
2018-09-09T06:25:04.036Z,2.07
2018-09-09T06:27:32.451Z,2.03
2018-09-09T06:30:00.775Z,2.00
2018-09-09T06:32:29.201Z,2.40
2018-09-09T06:34:57.564Z,2.10
2018-09-09T06:37:25.964Z,1.77
2018-09-09T06:39:54.280Z,2.10
2018-09-09T06:42:22.762Z,2.60
2018-09-09T06:44:51.107Z,2.53
2018-09-09T06:47:19.478Z,2.33
2018-09-09T06:49:47.935Z,2.03
2018-09-09T06:52:16.359Z,1.90
2018-09-09T06:54:45.278Z,1.67
2018-09-09T06:57:13.884Z,2.07
2018-09-09T06:59:42.371Z,1.60
2018-09-09T07:02:10.867Z,2.03
2018-09-09T07:04:39.259Z,1.97
2018-09-09T07:07:07.639Z,1.83
2018-09-09T07:09:36.029Z,2.00
2018-09-09T07:12:04.461Z,2.13
2018-09-09T07:14:32.780Z,1.97
2018-09-09T07:17:01.233Z,1.83
2018-09-09T07:19:29.550Z,2.00
2018-09-09T07:21:59.960Z,1.70
2018-09-09T07:24:28.408Z,2.23
2018-09-09T07:26:56.773Z,1.80
2018-09-09T07:29:25.073Z,2.03
2018-09-09T07:31:53.416Z,1.80
2018-09-09T07:34:22.857Z,1.60
2018-09-09T07:36:51.092Z,1.83
2018-09-09T07:39:21.420Z,1.70
2018-09-09T07:41:49.728Z,1.73
2018-09-09T07:44:18.076Z,1.77
2018-09-09T07:46:46.399Z,1.70
2018-09-09T07:49:14.965Z,2.00
2018-09-09T07:51:43.418Z,1.42
2018-09-09T07:54:11.839Z,1.40
2018-09-09T07:56:40.159Z,1.52
2018-09-09T07:59:08.551Z,1.73
2018-09-09T08:01:36.890Z,1.60
2018-09-09T08:04:05.280Z,1.45
2018-09-09T08:06:33.616Z,1.52
2018-09-09T08:09:02.031Z,1.40
2018-09-09T08:11:35.856Z,1.90
2018-09-09T08:14:04.214Z,1.25
2018-09-09T08:16:32.965Z,1.40
2018-09-09T08:19:01.509Z,1.60
2018-09-09T08:21:30.407Z,1.72
2018-09-09T08:23:59.219Z,1.37
2018-09-09T08:26:27.511Z,1.45
2018-09-09T08:28:55.955Z,1.27
2018-09-09T08:31:24.941Z,1.35
2018-09-09T08:33:53.470Z,1.40
2018-09-09T08:36:21.835Z,1.62
2018-09-09T08:38:50.163Z,1.20
2018-09-09T08:41:18.997Z,1.75
2018-09-09T08:43:47.312Z,1.10
2018-09-09T08:46:15.662Z,1.05
2018-09-09T08:48:44.043Z,1.27
2018-09-09T08:51:12.318Z,1.25
2018-09-09T08:53:40.931Z,1.20
2018-09-09T08:56:09.378Z,1.40
2018-09-09T08:58:37.802Z,1.30
2018-09-09T09:01:06.439Z,1.22
2018-09-09T09:03:34.783Z,1.40
2018-09-09T09:06:03.104Z,1.05
2018-09-09T09:08:31.502Z,1.00
2018-09-09T09:10:59.968Z,1.40
2018-09-09T09:13:28.340Z,1.20
2018-09-09T09:15:56.671Z,1.30
2018-09-09T09:18:25.139Z,1.20
2018-09-09T09:20:53.483Z,1.00
2018-09-09T09:23:21.900Z,1.17
2018-09-09T09:25:51.484Z,0.80
2018-09-09T09:28:21.912Z,1.10
2018-09-09T09:30:51.036Z,0.90
2018-09-09T09:33:19.262Z,0.93
2018-09-09T09:35:50.643Z,0.80
2018-09-09T09:38:20.652Z,0.80
2018-09-09T09:40:49.093Z,1.00
2018-09-09T09:43:17.408Z,0.80
2018-09-09T09:45:45.825Z,1.37
2018-09-09T09:48:14.240Z,1.02
2018-09-09T09:50:42.651Z,0.72
2018-09-09T09:53:11.108Z,0.88
2018-09-09T09:55:39.726Z,0.70
2018-09-09T09:58:08.143Z,0.98
2018-09-09T10:00:42.059Z,0.80
2018-09-09T10:03:10.426Z,0.55
2018-09-09T10:05:38.747Z,0.80
2018-09-09T10:08:07.111Z,1.10
2018-09-09T10:10:36.123Z,0.85
2018-09-09T10:13:05.355Z,1.17
2018-09-09T10:15:33.746Z,0.88
2018-09-09T10:18:02.104Z,0.72
2018-09-09T10:20:30.506Z,0.90
2018-09-09T10:22:58.969Z,0.80
2018-09-09T10:25:27.338Z,0.90
2018-09-09T10:27:56.614Z,0.93
2018-09-09T10:30:24.943Z,0.78
2018-09-09T10:32:54.344Z,0.80
2018-09-09T10:35:24.041Z,0.60
2018-09-09T10:37:52.419Z,0.70
2018-09-09T10:40:20.846Z,0.80
2018-09-09T10:42:49.347Z,0.80
2018-09-09T10:45:17.648Z,0.98
2018-09-09T10:47:46.049Z,0.80
2018-09-09T10:50:14.911Z,0.60
2018-09-09T10:52:43.211Z,0.78
2018-09-09T10:55:12.376Z,0.70
2018-09-09T10:57:40.647Z,0.50
2018-09-09T11:00:09.127Z,0.90
2018-09-09T11:02:37.491Z,0.50
2018-09-09T11:05:06.909Z,0.80
2018-09-09T11:07:35.244Z,0.80
2018-09-09T11:10:03.673Z,0.68
2018-09-09T11:12:32.612Z,0.72
2018-09-09T11:15:01.969Z,0.80
2018-09-09T11:17:31.064Z,0.90
2018-09-09T11:19:59.602Z,0.70
2018-09-09T11:22:29.085Z,0.88
2018-09-09T11:24:57.474Z,1.05
2018-09-09T11:27:26.543Z,0.90
2018-09-09T11:29:55.447Z,0.50
2018-09-09T11:32:24.016Z,1.00
2018-09-09T11:34:52.343Z,0.90
2018-09-09T11:37:21.004Z,0.72
2018-09-09T11:39:49.532Z,0.90
2018-09-09T11:42:18.132Z,0.68
2018-09-09T11:44:46.519Z,1.20
2018-09-09T11:47:14.828Z,1.05
2018-09-09T11:49:43.212Z,0.70
2018-09-09T11:52:11.696Z,0.82
2018-09-09T11:54:40.151Z,0.80
2018-09-09T11:57:08.519Z,0.62
2018-09-09T11:59:36.841Z,0.90
2018-09-09T12:02:07.189Z,0.75
2018-09-09T12:04:35.555Z,1.00
2018-09-09T12:07:03.952Z,0.80
2018-09-09T12:09:32.327Z,0.62
2018-09-09T12:12:00.647Z,0.65
2018-09-09T12:14:29.019Z,1.00
2018-09-09T12:16:57.301Z,0.78
2018-09-09T12:19:25.650Z,0.88
2018-09-09T12:21:54.974Z,0.80
2018-09-09T12:24:23.314Z,0.50
2018-09-09T12:26:51.697Z,0.70
2018-09-09T12:29:20.072Z,0.72
2018-09-09T12:31:48.437Z,0.80
2018-09-09T12:34:16.776Z,0.90
2018-09-09T12:36:45.093Z,0.80
2018-09-09T12:39:13.680Z,0.70
2018-09-09T12:41:42.112Z,1.00
2018-09-09T12:44:15.844Z,0.90
2018-09-09T12:46:53.640Z,0.80
2018-09-09T12:49:22.989Z,0.75
2018-09-09T12:51:51.363Z,0.50
2018-09-09T12:54:19.808Z,0.93
2018-09-09T12:56:49.227Z,0.68
2018-09-09T12:59:17.626Z,0.53
2018-09-09T13:01:46.051Z,0.60
2018-09-09T13:04:14.351Z,0.70
2018-09-09T13:06:42.837Z,0.70
2018-09-09T13:09:11.400Z,0.70
2018-09-09T13:11:39.913Z,0.98
2018-09-09T13:14:08.312Z,0.70
2018-09-09T13:16:36.707Z,0.60
2018-09-09T13:19:05.074Z,0.80
2018-09-09T13:21:33.553Z,0.45
2018-09-09T13:24:06.480Z,0.60
2018-09-09T13:26:34.820Z,0.50
2018-09-09T13:29:03.199Z,1.25
2018-09-09T13:31:31.585Z,0.88
2018-09-09T13:33:59.925Z,0.62
2018-09-09T13:36:28.275Z,0.65
2018-09-09T13:38:56.536Z,0.68
2018-09-09T13:41:24.936Z,0.57
2018-09-09T13:43:53.195Z,0.40
2018-09-09T13:46:21.636Z,0.60
2018-09-09T13:48:49.976Z,0.68
2018-09-09T13:51:18.288Z,0.80
2018-09-09T13:53:46.615Z,0.72
2018-09-09T13:56:14.899Z,0.57
2018-09-09T13:58:43.226Z,0.57
2018-09-09T14:01:11.591Z,0.75
2018-09-09T14:03:39.937Z,0.88
2018-09-09T14:06:08.251Z,0.60
2018-09-09T14:08:36.627Z,0.80
2018-09-09T14:11:04.966Z,0.75
2018-09-09T14:13:33.256Z,0.45
2018-09-09T14:16:01.575Z,1.32
2018-09-09T14:18:30.024Z,0.70
2018-09-09T14:20:58.336Z,0.70
2018-09-09T14:23:26.728Z,0.60
2018-09-09T14:25:55.068Z,0.57
2018-09-09T14:28:23.460Z,0.53
2018-09-09T14:30:51.838Z,0.60
2018-09-09T14:33:20.198Z,0.70
2018-09-09T14:35:48.673Z,0.50
2018-09-09T14:38:16.967Z,0.60
2018-09-09T14:40:45.512Z,0.80
2018-09-09T14:43:13.858Z,0.40
2018-09-09T14:45:42.302Z,0.42
2018-09-09T14:48:10.599Z,0.80
2018-09-09T14:50:38.972Z,0.75
2018-09-09T14:53:07.472Z,0.45
2018-09-09T14:55:35.819Z,0.50
2018-09-09T14:58:04.144Z,0.65
2018-09-09T15:00:32.499Z,0.55
2018-09-09T15:03:00.858Z,0.60
2018-09-09T15:05:29.232Z,0.50
2018-09-09T15:07:57.528Z,0.53
2018-09-09T15:10:25.955Z,0.57
2018-09-09T15:12:54.306Z,0.70
2018-09-09T15:15:22.647Z,0.60
2018-09-09T15:17:50.944Z,0.70
2018-09-09T15:20:19.314Z,0.98
2018-09-09T15:22:47.688Z,0.90
2018-09-09T15:25:16.070Z,0.55
2018-09-09T15:27:44.500Z,0.72
2018-09-09T15:30:12.827Z,0.78
2018-09-09T15:32:41.186Z,0.88
2018-09-09T15:35:09.499Z,0.62
2018-09-09T15:37:37.905Z,0.60
2018-09-09T15:40:06.393Z,0.75
2018-09-09T15:42:34.670Z,0.90
2018-09-09T15:45:03.050Z,0.80
2018-09-09T15:47:31.439Z,0.50
2018-09-09T15:50:00.843Z,0.60
2018-09-09T15:52:29.699Z,0.98
2018-09-09T15:54:58.073Z,0.53
2018-09-09T15:57:26.545Z,1.10
2018-09-09T15:59:54.954Z,0.60
2018-09-09T16:02:23.393Z,0.93
2018-09-09T16:04:51.836Z,0.80
2018-09-09T16:07:20.197Z,0.55
2018-09-09T16:09:48.542Z,0.68
2018-09-09T16:12:16.947Z,1.00
2018-09-09T16:14:45.363Z,0.80
2018-09-09T16:17:13.679Z,0.90
2018-09-09T16:19:42.147Z,0.90
2018-09-09T16:22:11.500Z,1.02
2018-09-09T16:24:39.851Z,0.90
2018-09-09T16:27:09.174Z,0.90
2018-09-09T16:29:37.581Z,0.70
2018-09-09T16:32:05.879Z,1.12
2018-09-09T16:34:34.281Z,1.05
2018-09-09T16:37:02.725Z,0.70
2018-09-09T16:39:31.236Z,0.70
2018-09-09T16:41:59.681Z,1.20
2018-09-09T16:44:28.344Z,0.98
2018-09-09T16:46:56.733Z,1.07
2018-09-09T16:49:26.136Z,0.90
2018-09-09T16:51:54.527Z,1.00
2018-09-09T16:54:23.494Z,0.85
2018-09-09T16:56:51.891Z,0.85
2018-09-09T16:59:20.212Z,1.00
2018-09-09T17:01:48.801Z,0.80
2018-09-09T17:04:18.334Z,1.05
2018-09-09T17:06:46.744Z,0.80
2018-09-09T17:09:15.082Z,1.35
2018-09-09T17:11:43.953Z,0.90
2018-09-09T17:14:12.272Z,1.17
2018-09-09T17:16:40.703Z,1.20
2018-09-09T17:19:09.059Z,1.12
2018-09-09T17:21:37.609Z,1.05
2018-09-09T17:24:05.939Z,1.12
2018-09-09T17:26:34.297Z,0.88
2018-09-09T17:29:02.763Z,1.07
2018-09-09T17:31:32.172Z,1.35
2018-09-09T17:34:00.592Z,1.00
2018-09-09T17:36:29.006Z,1.33
2018-09-09T17:38:57.539Z,1.30
2018-09-09T17:41:25.882Z,1.10
2018-09-09T17:43:54.296Z,1.50
2018-09-09T17:46:22.715Z,1.17
2018-09-09T17:48:51.054Z,1.20
2018-09-09T17:51:19.419Z,1.40
2018-09-09T17:53:47.798Z,0.90
2018-09-09T17:56:16.159Z,1.43
2018-09-09T17:58:44.503Z,1.47
2018-09-09T18:01:13.030Z,1.27
2018-09-09T18:03:41.391Z,1.60
2018-09-09T18:06:11.819Z,1.20
2018-09-09T18:08:40.243Z,0.90
2018-09-09T18:11:09.637Z,1.10
2018-09-09T18:13:38.025Z,1.33
2018-09-09T18:16:06.423Z,2.20
2018-09-09T18:18:35.742Z,1.60
2018-09-09T18:21:05.071Z,2.10
2018-09-09T18:23:34.424Z,1.53
2018-09-09T18:26:02.803Z,1.67
2018-09-09T18:28:31.083Z,2.00
2018-09-09T18:30:59.387Z,1.60
2018-09-09T18:33:27.788Z,1.47
2018-09-09T18:35:56.181Z,1.90
2018-09-09T18:38:24.670Z,1.27
2018-09-09T18:40:53.179Z,2.27
2018-09-09T18:43:21.555Z,1.80
2018-09-09T18:45:50.123Z,1.80
2018-09-09T18:48:18.728Z,1.60
2018-09-09T18:50:47.135Z,1.77
2018-09-09T18:53:15.636Z,1.90
2018-09-09T18:55:44.077Z,1.80
2018-09-09T18:58:12.507Z,1.60
2018-09-09T19:00:40.903Z,2.00
2018-09-09T19:03:09.384Z,1.50
2018-09-09T19:05:37.680Z,2.03
2018-09-09T19:08:06.040Z,2.20
2018-09-09T19:10:34.371Z,1.90
2018-09-09T19:13:02.940Z,1.50
2018-09-09T19:15:31.316Z,1.87
2018-09-09T19:17:59.652Z,1.60
2018-09-09T19:20:27.978Z,2.10
2018-09-09T19:22:56.323Z,1.83
2018-09-09T19:25:24.636Z,2.03
2018-09-09T19:28:56.036Z,2.50
2018-09-09T19:31:24.603Z,2.53
2018-09-09T19:33:53.021Z,1.90
2018-09-09T19:36:21.488Z,1.90
2018-09-09T19:38:49.942Z,3.33
2018-09-09T19:41:18.300Z,1.57
2018-09-09T19:43:46.582Z,2.53
2018-09-09T19:46:14.922Z,2.20
2018-09-09T19:48:44.610Z,2.33
2018-09-09T19:51:13.184Z,2.67
2018-09-09T19:53:45.617Z,2.37
2018-09-09T19:56:16.543Z,1.87
2018-09-09T19:58:44.932Z,2.53
2018-09-09T20:01:13.409Z,1.80
2018-09-09T20:03:41.918Z,2.23
2018-09-09T20:06:10.346Z,2.10
2018-09-09T20:08:38.750Z,2.00
2018-09-09T20:11:07.260Z,1.67
2018-09-09T20:13:35.679Z,2.03
2018-09-09T20:16:04.059Z,1.83
2018-09-09T20:18:32.445Z,2.00
2018-09-09T20:21:00.766Z,1.93
2018-09-09T20:23:29.099Z,1.93
2018-09-09T20:25:57.468Z,1.90
2018-09-09T20:28:25.879Z,2.33
2018-09-09T20:30:54.650Z,2.37
2018-09-09T20:33:22.997Z,1.90
2018-09-09T20:35:51.368Z,1.83
2018-09-09T20:38:19.851Z,1.97
2018-09-09T20:40:48.712Z,2.63
2018-09-09T20:43:17.023Z,1.90
2018-09-09T20:45:46.616Z,2.27
2018-09-09T20:48:16.263Z,1.70
2018-09-09T20:50:45.690Z,2.17
2018-09-09T20:53:15.110Z,2.60
2018-09-09T20:55:43.495Z,2.10
2018-09-09T20:58:12.350Z,1.87
2018-09-09T21:00:40.754Z,2.40
2018-09-09T21:03:09.058Z,2.03
2018-09-09T21:05:39.474Z,2.00
2018-09-09T21:08:07.782Z,2.33
2018-09-09T21:10:37.196Z,2.80
2018-09-09T21:13:05.612Z,1.93
2018-09-09T21:15:34.319Z,2.80
2018-09-09T21:18:02.633Z,2.43
2018-09-09T21:20:31.035Z,2.43
2018-09-09T21:22:59.400Z,2.00
2018-09-09T21:25:27.780Z,3.10
2018-09-09T21:27:56.106Z,2.57
2018-09-09T21:30:24.636Z,3.07
2018-09-09T21:32:53.130Z,2.60
2018-09-09T21:36:24.831Z,2.60
2018-09-09T21:38:53.277Z,2.30
2018-09-09T21:41:22.778Z,2.53
2018-09-09T21:43:51.117Z,2.97
2018-09-09T21:46:19.571Z,2.60
2018-09-09T21:48:47.949Z,2.53
2018-09-09T21:51:16.279Z,2.80
2018-09-09T21:53:45.055Z,2.40
2018-09-09T21:58:53.303Z,2.50
2018-09-09T22:01:27.114Z,2.17
2018-09-09T22:03:57.553Z,2.23
2018-09-09T22:06:26.413Z,2.20
2018-09-09T22:08:55.272Z,2.63
2018-09-09T22:11:23.857Z,2.77
2018-09-09T22:13:52.214Z,2.60
2018-09-09T22:16:20.570Z,2.00
2018-09-09T22:18:48.910Z,2.23
2018-09-09T22:21:17.258Z,2.20
2018-09-09T22:23:45.714Z,2.77
2018-09-09T22:26:16.200Z,2.07
2018-09-09T22:28:44.675Z,2.47
2018-09-09T22:31:12.970Z,2.53
2018-09-09T22:33:41.331Z,2.80
2018-09-09T22:36:09.639Z,3.20
2018-09-09T22:38:37.991Z,2.13
2018-09-09T22:41:06.293Z,3.10
2018-09-09T22:43:34.624Z,3.70
2018-09-09T22:46:02.958Z,2.93
2018-09-09T22:48:31.323Z,2.43
2018-09-09T22:50:59.731Z,2.47
2018-09-09T22:53:28.058Z,2.77
2018-09-09T22:55:56.753Z,3.03
2018-09-09T22:58:28.750Z,2.57
2018-09-09T23:00:57.097Z,2.50
2018-09-09T23:03:26.430Z,2.40
2018-09-09T23:05:54.886Z,2.90
2018-09-09T23:08:23.211Z,2.80
2018-09-09T23:11:00.060Z,1.93
2018-09-09T23:13:29.290Z,2.90
2018-09-09T23:15:58.177Z,2.70
2018-09-09T23:18:26.527Z,2.77
2018-09-09T23:20:54.982Z,2.40
2018-09-09T23:23:23.225Z,2.73
2018-09-09T23:25:51.561Z,2.47
2018-09-09T23:28:19.946Z,3.23
2018-09-09T23:30:48.304Z,3.10
2018-09-09T23:33:16.575Z,2.47
2018-09-09T23:35:45.843Z,3.20
2018-09-09T23:38:14.153Z,2.87
2018-09-09T23:40:42.445Z,2.87
2018-09-09T23:43:10.726Z,3.03
2018-09-09T23:45:38.979Z,2.90
2018-09-09T23:48:07.223Z,2.53
2018-09-09T23:50:35.538Z,3.03
2018-09-09T23:53:03.916Z,2.67
2018-09-09T23:55:32.178Z,2.23
2018-09-09T23:58:00.482Z,2.83
